Time;durP1;ratioP1;P1;durP2;ratioP2;P2;SDS_P1;SDS_P2;PMS_P1;PMS_P2;Temp;Humidity;BMP_temperature;BMP_pressure;BME280_temperature;BME280_humidity;BME280_pressure;Samples;Min_cycle;Max_cycle;Signal;HPM_P1;HPM_P2
2021/08/05 00:02:09;;;;;;;8.55;2.70;;;;;;;;;;5111330;28;20036;-71
2021/08/05 00:04:35;;;;;;;10.75;3.60;;;;;;;;;;5111107;28;20066;-71
2021/08/05 00:07:01;;;;;;;9.80;2.63;;;;;;;;;;5111606;28;20036;-71
2021/08/05 00:09:27;;;;;;;6.95;3.25;;;;;;;;;;5111158;28;20028;-71
2021/08/05 00:11:53;;;;;;;11.85;3.33;;;;;;;;;;5110738;28;20429;-71
2021/08/05 00:14:19;;;;;;;9.65;2.55;;;;;;;;;;5111064;28;20070;-71
2021/08/05 00:17:15;;;;;;;9.65;3.15;;;;;;;;;;5112232;27;20438;-71
2021/08/05 00:19:41;;;;;;;6.85;2.42;;;;;;;;;;5111036;28;20020;-71
2021/08/05 00:22:08;;;;;;;10.25;2.80;;;;;;;;;;5111233;28;20040;-70
2021/08/05 00:24:34;;;;;;;9.63;2.97;;;;;;;;;;5111368;28;20027;-71
2021/08/05 00:27:00;;;;;;;8.05;2.83;;;;;;;;;;5110903;28;20043;-71
2021/08/05 00:29:26;;;;;;;6.20;2.75;;;;;;;;;;5111228;28;20442;-71
2021/08/05 00:31:52;;;;;;;10.05;2.95;;;;;;;;;;5109811;28;20535;-71
2021/08/05 00:34:19;;;;;;;11.18;3.03;;;;;;;;;;5109294;28;20020;-71
2021/08/05 00:36:45;;;;;;;9.88;3.20;;;;;;;;;;5110909;28;20438;-71
2021/08/05 00:39:11;;;;;;;9.68;3.15;;;;;;;;;;5111555;28;20016;-71
2021/08/05 00:41:37;;;;;;;10.55;3.15;;;;;;;;;;5110471;28;20216;-73
2021/08/05 00:44:05;;;;;;;7.50;2.75;;;;;;;;;;5110954;28;20020;-71
2021/08/05 00:46:31;;;;;;;11.50;2.80;;;;;;;;;;5110375;28;20024;-71
2021/08/05 00:48:58;;;;;;;9.23;2.50;;;;;;;;;;5110934;28;20027;-71
2021/08/05 00:51:24;;;;;;;9.40;3.22;;;;;;;;;;5110733;28;20387;-71
2021/08/05 00:53:50;;;;;;;11.48;4.20;;;;;;;;;;5110501;28;20046;-71
2021/08/05 00:56:17;;;;;;;8.05;3.63;;;;;;;;;;5110534;28;20032;-71
2021/08/05 00:58:43;;;;;;;7.68;3.97;;;;;;;;;;5110614;28;20045;-71
2021/08/05 01:01:11;;;;;;;11.30;3.72;;;;;;;;;;5110115;28;20031;-71
2021/08/05 01:03:40;;;;;;;8.95;3.38;;;;;;;;;;5110543;28;20043;-71
2021/08/05 01:06:25;;;;;;;10.07;3.13;;;;;;;;;;5110997;28;20028;-71
2021/08/05 01:08:55;;;;;;;9.23;3.40;;;;;;;;;;5110092;28;20052;-71
2021/08/05 01:11:24;;;;;;;12.95;2.85;;;;;;;;;;5110459;28;20030;-71
2021/08/05 01:13:50;;;;;;;12.52;3.35;;;;;;;;;;5110342;28;20099;-72
2021/08/05 01:16:18;;;;;;;6.03;2.35;;;;;;;;;;5109558;28;20071;-71
2021/08/05 01:20:44;;;;;;;7.65;2.85;;;;;;;;;;5111408;27;20450;-71
2021/08/05 01:23:28;;;;;;;10.27;2.95;;;;;;;;;;5111016;28;20035;-71
2021/08/05 01:26:03;;;;;;;6.75;2.50;;;;;;;;;;5111587;28;20380;-72
2021/08/05 01:28:30;;;;;;;6.82;3.35;;;;;;;;;;5109632;28;20020;-71
2021/08/05 01:30:57;;;;;;;8.43;3.47;;;;;;;;;;5111434;28;20055;-71
2021/08/05 01:33:23;;;;;;;11.48;3.95;;;;;;;;;;5111393;28;20027;-71
2021/08/05 01:35:53;;;;;;;7.07;3.05;;;;;;;;;;5110693;28;20551;-71
2021/08/05 01:38:19;;;;;;;12.02;3.42;;;;;;;;;;5110976;28;20028;-71
2021/08/05 01:40:46;;;;;;;13.05;3.40;;;;;;;;;;5111169;28;20028;-71
2021/08/05 01:43:14;;;;;;;11.05;3.28;;;;;;;;;;5109538;28;20027;-71
2021/08/05 01:47:23;;;;;;;11.82;3.90;;;;;;;;;;5111495;27;20408;-70
2021/08/05 01:49:50;;;;;;;11.05;3.88;;;;;;;;;;5111201;28;20065;-70
2021/08/05 01:52:18;;;;;;;12.77;3.08;;;;;;;;;;5111471;28;20491;-70
2021/08/05 01:54:44;;;;;;;13.35;4.00;;;;;;;;;;5111234;28;20031;-70
2021/08/05 01:57:11;;;;;;;7.53;2.83;;;;;;;;;;5110797;28;20016;-71
2021/08/05 01:59:37;;;;;;;12.13;3.95;;;;;;;;;;5111282;28;20031;-70
2021/08/05 02:02:03;;;;;;;10.73;3.80;;;;;;;;;;5111401;28;20024;-71
2021/08/05 02:04:30;;;;;;;9.32;3.20;;;;;;;;;;5111129;28;20031;-70
2021/08/05 02:06:59;;;;;;;12.23;3.35;;;;;;;;;;5111074;28;20032;-71
2021/08/05 02:09:28;;;;;;;8.95;3.40;;;;;;;;;;5111324;28;20471;-70
2021/08/05 02:13:12;;;;;;;7.40;2.92;;;;;;;;;;5111111;27;20400;-71
2021/08/05 02:15:42;;;;;;;10.60;3.10;;;;;;;;;;5111430;28;20024;-70
2021/08/05 02:19:16;;;;;;;8.35;3.17;;;;;;;;;;5090894;27;20398;-71
2021/08/05 02:21:44;;;;;;;7.30;2.22;;;;;;;;;;5090988;28;20446;-71
2021/08/05 02:24:10;;;;;;;8.20;3.15;;;;;;;;;;5091554;28;20021;-70
2021/08/05 02:26:38;;;;;;;10.25;3.28;;;;;;;;;;5090515;28;20021;-70
2021/08/05 02:29:05;;;;;;;6.78;3.10;;;;;;;;;;5090846;28;20024;-70
2021/08/05 02:31:31;;;;;;;7.72;2.60;;;;;;;;;;5091014;28;20469;-70
2021/08/05 02:33:58;;;;;;;11.93;3.92;;;;;;;;;;5090392;28;20020;-70
2021/08/05 02:36:24;;;;;;;9.55;4.30;;;;;;;;;;5089412;28;20503;-70
2021/08/05 02:38:51;;;;;;;11.93;3.60;;;;;;;;;;5088941;28;20033;-70
2021/08/05 02:41:17;;;;;;;9.95;3.47;;;;;;;;;;5090806;28;20019;-70
2021/08/05 02:43:45;;;;;;;11.05;2.83;;;;;;;;;;5090753;28;20024;-70
2021/08/05 02:46:12;;;;;;;9.75;3.25;;;;;;;;;;5090138;28;20021;-71
2021/08/05 02:48:38;;;;;;;12.07;2.70;;;;;;;;;;5090648;28;20025;-71
2021/08/05 02:52:59;;;;;;;10.63;2.95;;;;;;;;;;5111405;27;20946;-71
2021/08/05 02:55:25;;;;;;;7.70;2.88;;;;;;;;;;5111353;28;20384;-71
2021/08/05 02:57:53;;;;;;;10.93;3.05;;;;;;;;;;5110018;28;20085;-71
2021/08/05 03:00:19;;;;;;;8.82;3.22;;;;;;;;;;5111109;28;20024;-70
2021/08/05 03:05:45;;;;;;;9.75;3.05;;;;;;;;;;5111543;27;20450;-71
2021/08/05 03:10:23;;;;;;;8.35;3.20;;;;;;;;;;5111965;27;20393;-70
2021/08/05 03:12:50;;;;;;;13.30;3.40;;;;;;;;;;5110069;28;20028;-70
2021/08/05 03:15:16;;;;;;;8.13;2.72;;;;;;;;;;5110945;28;20034;-70
2021/08/05 03:17:42;;;;;;;10.23;3.55;;;;;;;;;;5111338;28;20028;-71
2021/08/05 03:20:09;;;;;;;10.27;3.22;;;;;;;;;;5111140;28;20023;-71
2021/08/05 03:22:36;;;;;;;12.32;4.70;;;;;;;;;;5110744;28;20430;-70
2021/08/05 03:25:02;;;;;;;6.47;2.97;;;;;;;;;;5111681;28;20016;-71
2021/08/05 03:27:28;;;;;;;13.00;3.90;;;;;;;;;;5111055;28;20480;-70
2021/08/05 03:29:54;;;;;;;10.68;4.10;;;;;;;;;;5109236;28;20040;-70
2021/08/05 03:32:21;;;;;;;13.10;6.55;;;;;;;;;;5111182;28;20063;-70
2021/08/05 03:34:47;;;;;;;14.80;5.57;;;;;;;;;;5110832;28;20088;-71
2021/08/05 03:37:13;;;;;;;13.10;6.53;;;;;;;;;;5110534;28;20016;-70
2021/08/05 03:42:37;;;;;;;18.15;6.00;;;;;;;;;;5110983;27;20397;-71
2021/08/05 03:47:17;;;;;;;10.65;3.17;;;;;;;;;;5111609;27;20396;-71
2021/08/05 03:49:43;;;;;;;10.00;3.78;;;;;;;;;;5110890;28;20028;-71
2021/08/05 03:52:14;;;;;;;9.75;3.55;;;;;;;;;;5111272;28;20027;-71
2021/08/05 03:54:40;;;;;;;11.05;3.42;;;;;;;;;;5111834;28;20020;-71
2021/08/05 03:57:06;;;;;;;12.85;4.15;;;;;;;;;;5110787;28;20027;-71
2021/08/05 03:59:34;;;;;;;9.50;3.60;;;;;;;;;;5109925;28;20495;-72
2021/08/05 04:02:00;;;;;;;12.70;3.83;;;;;;;;;;5111150;28;20503;-71
2021/08/05 04:04:26;;;;;;;10.65;2.95;;;;;;;;;;5109424;28;20064;-71
2021/08/05 04:06:54;;;;;;;9.80;3.60;;;;;;;;;;5110998;28;20028;-71
2021/08/05 04:09:21;;;;;;;17.63;3.67;;;;;;;;;;5111286;28;20016;-71
2021/08/05 04:12:52;;;;;;;11.95;3.75;;;;;;;;;;5112187;27;20438;-71
2021/08/05 04:15:18;;;;;;;9.43;3.28;;;;;;;;;;5111344;28;20024;-70
2021/08/05 04:17:44;;;;;;;11.10;4.32;;;;;;;;;;5111040;28;20028;-70
2021/08/05 04:20:10;;;;;;;11.55;4.47;;;;;;;;;;5111306;28;20495;-71
2021/08/05 04:22:37;;;;;;;9.27;3.35;;;;;;;;;;5111352;28;20032;-70
2021/08/05 04:25:07;;;;;;;13.38;3.95;;;;;;;;;;5110821;28;20023;-71
2021/08/05 04:27:33;;;;;;;8.82;3.90;;;;;;;;;;5111151;28;20137;-70
2021/08/05 04:29:59;;;;;;;13.85;3.42;;;;;;;;;;5111079;28;20076;-70
2021/08/05 04:32:26;;;;;;;18.60;4.63;;;;;;;;;;5110601;28;20028;-70
2021/08/05 04:36:06;;;;;;;12.40;4.13;;;;;;;;;;5111441;27;20466;-71
2021/08/05 04:38:32;;;;;;;12.82;3.72;;;;;;;;;;5110916;28;20051;-71
2021/08/05 04:41:20;;;;;;;16.35;3.80;;;;;;;;;;5111743;27;20396;-71
2021/08/05 04:43:47;;;;;;;11.25;3.60;;;;;;;;;;5110054;28;20038;-71
2021/08/05 04:46:13;;;;;;;13.68;3.40;;;;;;;;;;5110897;28;20027;-70
2021/08/05 04:48:39;;;;;;;14.23;3.72;;;;;;;;;;5111524;28;20077;-71
2021/08/05 04:51:05;;;;;;;10.95;3.45;;;;;;;;;;5109887;28;20020;-71
2021/08/05 04:53:31;;;;;;;12.25;3.70;;;;;;;;;;5110826;28;20098;-71
2021/08/05 04:55:58;;;;;;;11.13;4.50;;;;;;;;;;5111248;28;20468;-71
2021/08/05 04:58:24;;;;;;;11.32;4.05;;;;;;;;;;5109725;28;20023;-71
2021/08/05 05:00:50;;;;;;;14.85;4.05;;;;;;;;;;5110538;28;20032;-71
2021/08/05 05:03:16;;;;;;;9.32;3.47;;;;;;;;;;5109617;28;20024;-71
2021/08/05 05:05:42;;;;;;;7.93;3.30;;;;;;;;;;5110792;28;20028;-70
2021/08/05 05:08:25;;;;;;;10.70;3.20;;;;;;;;;;5110599;28;20020;-71
2021/08/05 05:10:53;;;;;;;9.13;3.88;;;;;;;;;;5109172;28;20067;-71
2021/08/05 05:13:19;;;;;;;15.00;3.65;;;;;;;;;;5110688;28;20020;-70
2021/08/05 05:15:46;;;;;;;11.98;4.20;;;;;;;;;;5110565;28;20016;-71
2021/08/05 05:18:14;;;;;;;8.32;3.33;;;;;;;;;;5110434;28;20099;-70
2021/08/05 05:20:40;;;;;;;9.68;3.13;;;;;;;;;;5110221;28;20043;-70
2021/08/05 05:23:07;;;;;;;9.20;3.38;;;;;;;;;;5110612;28;20387;-70
2021/08/05 05:25:33;;;;;;;8.00;3.50;;;;;;;;;;5109487;28;20071;-70
2021/08/05 05:28:00;;;;;;;10.43;3.28;;;;;;;;;;5109718;28;20031;-70
2021/08/05 05:30:26;;;;;;;11.30;3.60;;;;;;;;;;5110428;28;20480;-71
2021/08/05 05:32:52;;;;;;;10.05;4.32;;;;;;;;;;5110193;28;20028;-71
2021/08/05 05:35:19;;;;;;;11.05;4.18;;;;;;;;;;5109965;28;20438;-70
2021/08/05 05:37:46;;;;;;;15.95;4.88;;;;;;;;;;5110380;28;20016;-69
2021/08/05 05:40:13;;;;;;;10.10;3.72;;;;;;;;;;5109872;28;20396;-69
2021/08/05 05:42:39;;;;;;;9.95;4.78;;;;;;;;;;5108507;28;20028;-70
2021/08/05 05:45:06;;;;;;;14.80;5.75;;;;;;;;;;5106112;28;20056;-70
2021/08/05 05:47:33;;;;;;;16.30;6.38;;;;;;;;;;5107705;28;20023;-69
2021/08/05 05:49:59;;;;;;;15.25;6.28;;;;;;;;;;5109370;28;20494;-70
2021/08/05 05:52:25;;;;;;;12.88;5.40;;;;;;;;;;5097793;28;20034;-71
2021/08/05 05:56:36;;;;;;;12.43;4.78;;;;;;;;;;5111261;27;20384;-70
2021/08/05 05:59:02;;;;;;;10.45;4.20;;;;;;;;;;5110127;28;20032;-70
2021/08/05 06:01:29;;;;;;;17.33;5.57;;;;;;;;;;5112043;28;20073;-70
2021/08/05 06:03:55;;;;;;;10.98;5.60;;;;;;;;;;5110620;28;20016;-70
2021/08/05 06:06:21;;;;;;;13.10;6.03;;;;;;;;;;5110878;28;20024;-71
2021/08/05 06:08:47;;;;;;;15.98;7.57;;;;;;;;;;5109673;28;20051;-70
2021/08/05 06:11:14;;;;;;;17.05;6.13;;;;;;;;;;5110723;28;20464;-70
2021/08/05 06:13:40;;;;;;;15.43;7.38;;;;;;;;;;5109809;28;20076;-71
2021/08/05 06:17:56;;;;;;;13.63;5.57;;;;;;;;;;5110001;27;20401;-70
2021/08/05 06:20:23;;;;;;;12.23;4.78;;;;;;;;;;5109926;28;20039;-71
2021/08/05 06:22:49;;;;;;;16.25;6.78;;;;;;;;;;5111162;28;20020;-70
2021/08/05 06:25:16;;;;;;;14.57;5.63;;;;;;;;;;5109239;28;20023;-70
2021/08/05 06:27:42;;;;;;;12.00;5.97;;;;;;;;;;5110287;28;20031;-70
2021/08/05 06:30:09;;;;;;;11.00;5.53;;;;;;;;;;5109626;28;20414;-69
2021/08/05 06:34:20;;;;;;;15.10;6.13;;;;;;;;;;5111337;27;20446;-70
2021/08/05 06:36:46;;;;;;;19.42;6.25;;;;;;;;;;5111282;28;20031;-71
2021/08/05 06:39:12;;;;;;;12.77;5.65;;;;;;;;;;5110743;28;20028;-70
2021/08/05 06:41:38;;;;;;;14.38;5.80;;;;;;;;;;5111191;28;20383;-70
2021/08/05 06:44:05;;;;;;;16.35;6.97;;;;;;;;;;5111597;28;20020;-70
2021/08/05 06:46:31;;;;;;;15.25;7.75;;;;;;;;;;5110716;28;20026;-70
2021/08/05 06:48:57;;;;;;;13.40;6.82;;;;;;;;;;5111367;28;20023;-71
2021/08/05 06:51:23;;;;;;;15.00;7.05;;;;;;;;;;5110997;28;20024;-70
2021/08/05 06:53:49;;;;;;;14.73;8.05;;;;;;;;;;5110590;28;20038;-71
2021/08/05 06:56:16;;;;;;;14.20;7.97;;;;;;;;;;5110911;28;20023;-70
2021/08/05 06:58:42;;;;;;;17.58;7.57;;;;;;;;;;5110854;28;20027;-71
2021/08/05 07:01:08;;;;;;;15.73;6.97;;;;;;;;;;5109740;28;20019;-71
2021/08/05 07:03:34;;;;;;;17.35;8.75;;;;;;;;;;5110843;28;20028;-71
2021/08/05 07:06:00;;;;;;;14.82;8.75;;;;;;;;;;5110704;28;20097;-71
2021/08/05 07:08:27;;;;;;;16.75;8.80;;;;;;;;;;5110744;28;20039;-71
2021/08/05 07:10:53;;;;;;;22.40;8.38;;;;;;;;;;5110539;28;20054;-71
2021/08/05 07:13:19;;;;;;;20.52;8.20;;;;;;;;;;5110155;28;20404;-71
2021/08/05 07:15:46;;;;;;;18.02;7.82;;;;;;;;;;5110491;28;20464;-71
2021/08/05 07:18:12;;;;;;;17.90;8.05;;;;;;;;;;5110569;28;20030;-71
2021/08/05 07:20:38;;;;;;;19.27;8.25;;;;;;;;;;5109995;28;20016;-71
2021/08/05 07:23:05;;;;;;;18.58;7.80;;;;;;;;;;5110365;28;20019;-71
2021/08/05 07:25:31;;;;;;;14.93;7.05;;;;;;;;;;5110571;28;20032;-71
2021/08/05 07:28:01;;;;;;;19.23;7.35;;;;;;;;;;5110230;28;20028;-71
2021/08/05 07:30:27;;;;;;;17.38;7.15;;;;;;;;;;5110326;28;20016;-71
2021/08/05 07:32:54;;;;;;;13.85;6.80;;;;;;;;;;5109981;28;20143;-72
2021/08/05 07:35:20;;;;;;;17.63;6.45;;;;;;;;;;5125571;28;20020;-71
2021/08/05 07:37:46;;;;;;;16.58;7.38;;;;;;;;;;5110118;28;20028;-72
2021/08/05 07:40:13;;;;;;;21.25;7.13;;;;;;;;;;5110094;28;20145;-71
2021/08/05 07:42:39;;;;;;;15.45;6.90;;;;;;;;;;5109749;28;20031;-74
2021/08/05 07:45:06;;;;;;;16.73;6.50;;;;;;;;;;5082436;28;20469;-75
2021/08/05 07:47:32;;;;;;;20.00;6.95;;;;;;;;;;5074755;28;20373;-74
2021/08/05 07:49:58;;;;;;;14.68;5.95;;;;;;;;;;5074122;28;20029;-75
2021/08/05 07:52:24;;;;;;;16.33;6.10;;;;;;;;;;5075816;28;20048;-75
2021/08/05 07:54:50;;;;;;;10.90;5.35;;;;;;;;;;5075864;28;20103;-72
2021/08/05 07:57:16;;;;;;;17.42;7.63;;;;;;;;;;5075493;28;20023;-71
2021/08/05 07:59:45;;;;;;;15.35;5.97;;;;;;;;;;5075613;28;20024;-72
2021/08/05 08:02:11;;;;;;;11.23;4.60;;;;;;;;;;5074586;28;20119;-72
2021/08/05 08:04:37;;;;;;;13.43;4.95;;;;;;;;;;5075421;28;20017;-71
2021/08/05 08:07:04;;;;;;;13.68;5.53;;;;;;;;;;5076327;28;20464;-72
2021/08/05 08:09:32;;;;;;;14.68;5.80;;;;;;;;;;5075336;28;20039;-72
2021/08/05 08:11:58;;;;;;;12.13;5.70;;;;;;;;;;5075597;28;20536;-72
2021/08/05 08:14:24;;;;;;;13.57;4.75;;;;;;;;;;5075931;28;20032;-72
2021/08/05 08:16:50;;;;;;;10.27;4.95;;;;;;;;;;5075221;28;20035;-72
2021/08/05 08:19:16;;;;;;;10.80;5.15;;;;;;;;;;5075605;28;20380;-72
2021/08/05 08:21:42;;;;;;;10.88;4.88;;;;;;;;;;5075538;28;20021;-73
2021/08/05 08:24:10;;;;;;;13.13;5.00;;;;;;;;;;5075079;28;20025;-72
2021/08/05 08:26:38;;;;;;;14.43;5.40;;;;;;;;;;5075398;28;20024;-72
2021/08/05 08:29:04;;;;;;;10.40;4.32;;;;;;;;;;5075222;28;20365;-72
2021/08/05 08:31:30;;;;;;;13.65;4.18;;;;;;;;;;5074948;28;20388;-72
2021/08/05 08:33:57;;;;;;;9.45;4.53;;;;;;;;;;5075040;28;20584;-72
2021/08/05 08:36:23;;;;;;;9.00;3.42;;;;;;;;;;5075207;28;20060;-72
2021/08/05 08:38:49;;;;;;;10.45;3.95;;;;;;;;;;5074731;28;20020;-72
2021/08/05 08:41:15;;;;;;;11.55;4.25;;;;;;;;;;5073850;28;20021;-71
2021/08/05 08:43:41;;;;;;;11.52;3.78;;;;;;;;;;5075243;28;20098;-71
2021/08/05 08:46:10;;;;;;;10.63;3.80;;;;;;;;;;5074674;28;20473;-72
2021/08/05 08:48:37;;;;;;;10.43;4.13;;;;;;;;;;5074954;28;20426;-71
2021/08/05 08:51:03;;;;;;;10.27;3.78;;;;;;;;;;5074998;28;20390;-72
2021/08/05 08:53:35;;;;;;;12.65;3.83;;;;;;;;;;5074431;28;20033;-72
2021/08/05 08:56:01;;;;;;;;;;;;;;;;;;5074365;28;20073;-72
2021/08/05 08:58:28;;;;;;;14.35;4.22;;;;;;;;;;5074784;28;19991;-72
2021/08/05 09:00:54;;;;;;;11.15;4.32;;;;;;;;;;5073010;28;20473;-72
2021/08/05 09:03:20;;;;;;;12.57;4.53;;;;;;;;;;5074799;28;20020;-72
2021/08/05 09:05:47;;;;;;;17.65;4.68;;;;;;;;;;5074440;28;20380;-72
2021/08/05 09:08:14;;;;;;;17.08;4.45;;;;;;;;;;5074747;28;20017;-72
2021/08/05 09:10:40;;;;;;;14.93;4.50;;;;;;;;;;5074627;28;20028;-72
2021/08/05 09:13:08;;;;;;;12.52;4.43;;;;;;;;;;5074381;28;20083;-72
2021/08/05 09:15:45;;;;;;;15.07;4.47;;;;;;;;;;5073174;28;20358;-72
2021/08/05 09:18:27;;;;;;;12.82;4.32;;;;;;;;;;5073154;28;20033;-72
2021/08/05 09:21:08;;;;;;;11.77;4.28;;;;;;;;;;5073907;28;20028;-72
2021/08/05 09:23:54;;;;;;;9.68;3.30;;;;;;;;;;5074297;28;20024;-71
2021/08/05 09:26:28;;;;;;;12.88;3.80;;;;;;;;;;5074451;28;20407;-71
2021/08/05 09:29:01;;;;;;;18.55;4.85;;;;;;;;;;5072607;28;20024;-71
2021/08/05 09:31:27;;;;;;;16.42;3.92;;;;;;;;;;5072861;28;20070;-71
2021/08/05 09:34:01;;;;;;;12.68;5.00;;;;;;;;;;5073461;28;20055;-72
2021/08/05 09:36:30;;;;;;;13.13;4.07;;;;;;;;;;5074208;28;20027;-71
2021/08/05 09:38:56;;;;;;;15.32;4.65;;;;;;;;;;5072772;28;20025;-71
2021/08/05 09:41:22;;;;;;;10.85;4.28;;;;;;;;;;5073519;28;20048;-70
2021/08/05 09:43:48;;;;;;;15.50;4.45;;;;;;;;;;5074192;28;20028;-71
2021/08/05 09:46:29;;;;;;;12.48;3.85;;;;;;;;;;5073904;28;20032;-70
2021/08/05 09:48:55;;;;;;;14.30;3.95;;;;;;;;;;5073442;28;20391;-71
2021/08/05 09:51:21;;;;;;;14.68;4.18;;;;;;;;;;5073737;28;20048;-70
2021/08/05 09:53:57;;;;;;;12.93;3.75;;;;;;;;;;5072367;28;20060;-71
2021/08/05 09:56:23;;;;;;;13.02;3.95;;;;;;;;;;5073538;28;20027;-71
2021/08/05 09:58:49;;;;;;;13.70;4.20;;;;;;;;;;5074026;28;20362;-71
2021/08/05 10:01:16;;;;;;;11.32;3.72;;;;;;;;;;5073653;28;20033;-71
2021/08/05 10:03:42;;;;;;;17.52;3.63;;;;;;;;;;5073328;28;20021;-71
2021/08/05 10:06:09;;;;;;;8.75;3.38;;;;;;;;;;5073753;28;20067;-71
2021/08/05 10:08:36;;;;;;;17.52;4.50;;;;;;;;;;5073334;28;20503;-71
2021/08/05 10:11:02;;;;;;;11.10;3.35;;;;;;;;;;5071906;28;20053;-71
2021/08/05 10:13:29;;;;;;;10.70;4.05;;;;;;;;;;5074017;28;20366;-71
2021/08/05 10:15:56;;;;;;;17.63;5.10;;;;;;;;;;5073056;28;20032;-71
2021/08/05 10:18:25;;;;;;;14.70;4.20;;;;;;;;;;5073606;28;20032;-71
2021/08/05 10:20:51;;;;;;;14.32;4.03;;;;;;;;;;5073628;28;20031;-71
2021/08/05 10:23:18;;;;;;;19.05;5.43;;;;;;;;;;5072984;28;20027;-71
2021/08/05 10:25:44;;;;;;;13.80;4.47;;;;;;;;;;5073619;28;20020;-71
2021/08/05 10:28:13;;;;;;;17.45;4.95;;;;;;;;;;5073411;28;20081;-70
2021/08/05 10:30:39;;;;;;;16.05;4.47;;;;;;;;;;5073311;28;20380;-71
2021/08/05 10:33:08;;;;;;;12.68;4.53;;;;;;;;;;5073195;28;20505;-73
2021/08/05 10:35:34;;;;;;;13.38;5.18;;;;;;;;;;5072016;28;20111;-71
2021/08/05 10:38:01;;;;;;;16.50;7.30;;;;;;;;;;5073008;28;20028;-72
2021/08/05 10:40:28;;;;;;;11.23;4.70;;;;;;;;;;5073836;28;20091;-71
2021/08/05 10:42:56;;;;;;;16.67;4.88;;;;;;;;;;5071977;28;20020;-72
2021/08/05 10:45:23;;;;;;;16.25;5.03;;;;;;;;;;5072794;28;20021;-72
2021/08/05 10:47:50;;;;;;;14.13;4.70;;;;;;;;;;5073231;28;20103;-72
2021/08/05 10:50:20;;;;;;;13.02;5.40;;;;;;;;;;5073179;28;20035;-72
2021/08/05 10:52:51;;;;;;;15.65;4.00;;;;;;;;;;5073175;28;20032;-72
2021/08/05 10:55:17;;;;;;;16.90;5.90;;;;;;;;;;5073181;28;20055;-72
2021/08/05 10:57:44;;;;;;;17.85;6.18;;;;;;;;;;5073121;28;20078;-72
2021/08/05 11:00:13;;;;;;;13.43;4.45;;;;;;;;;;5072728;28;20477;-72
2021/08/05 11:02:52;;;;;;;16.08;4.90;;;;;;;;;;5073043;28;20024;-71
2021/08/05 11:05:41;;;;;;;14.57;5.10;;;;;;;;;;5072818;28;20021;-72
2021/08/05 11:08:07;;;;;;;13.65;4.68;;;;;;;;;;5073351;28;20028;-72
2021/08/05 11:10:33;;;;;;;16.38;4.68;;;;;;;;;;5072925;28;20016;-72
2021/08/05 11:13:09;;;;;;;21.80;5.70;;;;;;;;;;5072538;28;20036;-72
2021/08/05 11:15:35;;;;;;;15.35;5.63;;;;;;;;;;5072886;28;20032;-71
2021/08/05 11:18:16;;;;;;;16.27;5.68;;;;;;;;;;5072903;28;20032;-71
2021/08/05 11:20:52;;;;;;;19.08;5.15;;;;;;;;;;5075636;28;20024;-71
2021/08/05 11:23:34;;;;;;;14.20;5.18;;;;;;;;;;5076617;28;20036;-71
2021/08/05 11:26:01;;;;;;;14.68;5.25;;;;;;;;;;5076729;28;20016;-71
2021/08/05 11:28:28;;;;;;;13.73;4.13;;;;;;;;;;5076153;28;20483;-71
2021/08/05 11:31:01;;;;;;;21.80;5.18;;;;;;;;;;5076559;28;20020;-71
2021/08/05 11:33:39;;;;;;;16.08;4.28;;;;;;;;;;5074557;28;20048;-71
2021/08/05 11:36:20;;;;;;;22.20;5.97;;;;;;;;;;5076558;28;20027;-71
2021/08/05 11:39:05;;;;;;;17.02;4.82;;;;;;;;;;5076828;28;20056;-71
2021/08/05 11:41:37;;;;;;;15.05;4.53;;;;;;;;;;5076189;28;20550;-71
2021/08/05 11:44:22;;;;;;;15.98;4.88;;;;;;;;;;5075019;28;20031;-72
2021/08/05 11:47:08;;;;;;;19.20;5.60;;;;;;;;;;5076824;28;20048;-71
2021/08/05 11:49:36;;;;;;;20.15;4.43;;;;;;;;;;5075833;28;20073;-71
2021/08/05 11:52:17;;;;;;;14.38;4.10;;;;;;;;;;5074740;28;20033;-72
2021/08/05 11:54:50;;;;;;;17.95;4.72;;;;;;;;;;5075699;28;20028;-72
2021/08/05 11:57:17;;;;;;;14.57;4.00;;;;;;;;;;5076179;28;20525;-72
2021/08/05 11:59:44;;;;;;;21.80;4.68;;;;;;;;;;5076212;28;20396;-71
2021/08/05 12:02:12;;;;;;;13.13;3.60;;;;;;;;;;5075463;28;20107;-72
2021/08/05 12:04:38;;;;;;;21.25;4.43;;;;;;;;;;5075979;28;20020;-71
2021/08/05 12:07:21;;;;;;;17.08;4.93;;;;;;;;;;5075866;28;20102;-72
2021/08/05 12:09:58;;;;;;;14.65;3.80;;;;;;;;;;5075434;28;20146;-72
2021/08/05 12:12:25;;;;;;;25.30;4.72;;;;;;;;;;5076024;28;20070;-72
2021/08/05 12:14:54;;;;;;;12.40;3.88;;;;;;;;;;5074375;28;20560;-72
2021/08/05 12:17:34;;;;;;;19.35;5.88;;;;;;;;;;5075267;28;20498;-71
2021/08/05 12:20:01;;;;;;;18.73;5.13;;;;;;;;;;5074354;28;20032;-71
2021/08/05 12:22:34;;;;;;;13.02;3.67;;;;;;;;;;5075313;28;20037;-71
2021/08/05 12:25:03;;;;;;;21.63;4.75;;;;;;;;;;5075516;28;20063;-71
2021/08/05 12:27:30;;;;;;;11.52;3.63;;;;;;;;;;5074142;28;20032;-71
2021/08/05 12:30:14;;;;;;;15.15;3.65;;;;;;;;;;5074981;28;20024;-71
2021/08/05 12:32:57;;;;;;;17.77;4.68;;;;;;;;;;5075472;28;20121;-71
2021/08/05 12:35:23;;;;;;;23.10;4.25;;;;;;;;;;5075270;28;20028;-72
2021/08/05 12:37:59;;;;;;;21.50;4.97;;;;;;;;;;5074967;28;20511;-72
2021/08/05 12:40:25;;;;;;;15.68;4.07;;;;;;;;;;5075156;28;20032;-71
2021/08/05 12:42:51;;;;;;;25.08;5.38;;;;;;;;;;5075087;28;20029;-71
2021/08/05 12:45:18;;;;;;;12.95;3.90;;;;;;;;;;5074778;28;20023;-71
2021/08/05 12:47:44;;;;;;;20.65;4.60;;;;;;;;;;5075162;28;20493;-71
2021/08/05 12:50:10;;;;;;;18.90;4.35;;;;;;;;;;5075035;28;20021;-72
2021/08/05 12:52:40;;;;;;;25.33;4.72;;;;;;;;;;5077463;28;20491;-70
2021/08/05 12:55:08;;;;;;;18.15;4.47;;;;;;;;;;5067311;28;20066;-71
2021/08/05 12:57:38;;;;;;;14.77;3.95;;;;;;;;;;5061002;28;20158;-71
2021/08/05 13:00:24;;;;;;;23.70;4.80;;;;;;;;;;5061827;28;20179;-71
2021/08/05 13:02:57;;;;;;;24.70;4.93;;;;;;;;;;5058642;28;20043;-72
2021/08/05 13:05:23;;;;;;;17.58;4.38;;;;;;;;;;5061817;28;20074;-71
2021/08/05 13:07:52;;;;;;;20.75;4.65;;;;;;;;;;5065956;28;20028;-72
2021/08/05 13:10:20;;;;;;;18.98;4.45;;;;;;;;;;5065419;28;20531;-71
2021/08/05 13:12:50;;;;;;;20.45;4.18;;;;;;;;;;5059824;28;20024;-72
2021/08/05 13:15:33;;;;;;;17.15;4.45;;;;;;;;;;5061183;28;20040;-71
2021/08/05 13:18:00;;;;;;;18.40;4.65;;;;;;;;;;5057755;28;20021;-71
2021/08/05 13:20:27;;;;;;;22.50;4.38;;;;;;;;;;5060346;28;20089;-71
2021/08/05 13:22:53;;;;;;;17.40;4.55;;;;;;;;;;5065261;28;20047;-71
2021/08/05 13:25:24;;;;;;;20.98;5.20;;;;;;;;;;5063642;28;21230;-71
2021/08/05 13:28:07;;;;;;;14.00;3.37;;;;;;;;;;5063456;28;20047;-70
2021/08/05 13:30:33;;;;;;;20.50;5.53;;;;;;;;;;5062896;28;20268;-70
2021/08/05 13:32:59;;;;;;;14.88;4.47;;;;;;;;;;5060017;28;20876;-70
2021/08/05 13:35:25;;;;;;;16.67;4.80;;;;;;;;;;5061848;28;20418;-71
2021/08/05 13:37:59;;;;;;;21.00;4.88;;;;;;;;;;5061496;28;20067;-70
2021/08/05 13:40:26;;;;;;;22.50;5.47;;;;;;;;;;5062493;28;20775;-70
2021/08/05 13:42:52;;;;;;;19.80;4.78;;;;;;;;;;5065911;28;20027;-70
2021/08/05 13:45:18;;;;;;;17.17;4.13;;;;;;;;;;5062570;28;20118;-70
2021/08/05 13:47:46;;;;;;;21.20;5.35;;;;;;;;;;5059466;28;20466;-71
2021/08/05 13:50:25;;;;;;;29.27;5.40;;;;;;;;;;5065220;28;20358;-71
2021/08/05 13:52:51;;;;;;;13.52;4.32;;;;;;;;;;5062789;28;20473;-71
2021/08/05 13:55:19;;;;;;;19.13;4.93;;;;;;;;;;5057551;28;20097;-70
2021/08/05 13:57:45;;;;;;;19.65;4.88;;;;;;;;;;5076514;28;20016;-71
2021/08/05 14:00:11;;;;;;;21.05;4.88;;;;;;;;;;5092625;28;20030;-71
2021/08/05 14:02:40;;;;;;;22.42;4.95;;;;;;;;;;5093457;28;20024;-71
2021/08/05 14:05:06;;;;;;;26.88;4.95;;;;;;;;;;5093894;28;20082;-71
2021/08/05 14:07:33;;;;;;;17.75;4.35;;;;;;;;;;5093698;28;20070;-71
2021/08/05 14:09:59;;;;;;;18.33;5.30;;;;;;;;;;5093387;28;20016;-72
2021/08/05 14:12:26;;;;;;;17.75;5.00;;;;;;;;;;5093579;28;20081;-70
2021/08/05 14:14:52;;;;;;;17.95;4.78;;;;;;;;;;5092467;28;20105;-71
2021/08/05 14:17:19;;;;;;;16.52;4.32;;;;;;;;;;5091872;28;20070;-71
2021/08/05 14:19:45;;;;;;;16.38;4.70;;;;;;;;;;5093451;28;20052;-71
2021/08/05 14:22:12;;;;;;;17.60;5.95;;;;;;;;;;5093179;28;20024;-70
2021/08/05 14:24:38;;;;;;;14.40;5.18;;;;;;;;;;5093417;28;20031;-71
2021/08/05 14:27:05;;;;;;;21.75;6.13;;;;;;;;;;5093717;28;20027;-71
2021/08/05 14:29:31;;;;;;;22.17;4.80;;;;;;;;;;5091787;28;20020;-71
2021/08/05 14:31:58;;;;;;;26.75;5.65;;;;;;;;;;5093297;28;20069;-71
2021/08/05 14:34:24;;;;;;;20.73;5.05;;;;;;;;;;5093486;28;20068;-71
2021/08/05 14:36:50;;;;;;;18.33;4.82;;;;;;;;;;5092986;28;20036;-71
2021/08/05 14:39:20;;;;;;;20.48;5.53;;;;;;;;;;5093464;28;20024;-71
2021/08/05 14:41:46;;;;;;;25.45;5.82;;;;;;;;;;5093417;28;20106;-71
2021/08/05 14:44:13;;;;;;;23.10;5.35;;;;;;;;;;5091727;28;20054;-71
2021/08/05 14:46:42;;;;;;;24.63;5.65;;;;;;;;;;5093463;28;20048;-73
2021/08/05 14:49:08;;;;;;;23.02;4.60;;;;;;;;;;5093292;28;20522;-72
2021/08/05 14:51:35;;;;;;;16.75;4.72;;;;;;;;;;5092943;28;20024;-71
2021/08/05 14:54:02;;;;;;;20.25;5.72;;;;;;;;;;5093886;28;20089;-70
2021/08/05 14:56:28;;;;;;;21.67;5.10;;;;;;;;;;5097452;28;20395;-72
2021/08/05 14:58:54;;;;;;;17.45;5.57;;;;;;;;;;5096945;28;20073;-72
2021/08/05 15:01:21;;;;;;;15.25;4.72;;;;;;;;;;5097260;28;20028;-71
2021/08/05 15:03:47;;;;;;;18.55;5.50;;;;;;;;;;5097302;28;20024;-70
2021/08/05 15:06:13;;;;;;;52.35;8.98;;;;;;;;;;5096858;28;20095;-71